Time;durP1;ratioP1;P1;durP2;ratioP2;P2;SDS_P1;SDS_P2;PMS_P1;PMS_P2;Temp;Humidity;BMP_temperature;BMP_pressure;BME280_temperature;BME280_humidity;BME280_pressure;Samples;Min_cycle;Max_cycle;Signal;HPM_P1;HPM_P2
2022/09/14 00:00:58;;;;;;;8.60;3.67;;;;;;;;;;4994744;28;20026;-76
2022/09/14 00:03:23;;;;;;;7.60;3.15;;;;;;;;;;4993500;28;20036;-75
2022/09/14 00:05:48;;;;;;;4.10;3.00;;;;;;;;;;4994796;28;20027;-75
2022/09/14 00:08:14;;;;;;;6.50;3.08;;;;;;;;;;4994697;28;20307;-76
2022/09/14 00:10:41;;;;;;;5.30;3.20;;;;;;;;;;4994697;28;20053;-75
2022/09/14 00:13:08;;;;;;;7.68;3.40;;;;;;;;;;4994577;28;20034;-76
2022/09/14 00:15:38;;;;;;;5.45;3.28;;;;;;;;;;4994494;28;20031;-76
2022/09/14 00:18:05;;;;;;;4.47;3.42;;;;;;;;;;4994596;28;20084;-75
2022/09/14 00:20:31;;;;;;;7.00;3.17;;;;;;;;;;4994735;28;20026;-77
2022/09/14 00:22:56;;;;;;;4.55;3.30;;;;;;;;;;4994604;28;20386;-76
2022/09/14 00:25:22;;;;;;;5.38;3.42;;;;;;;;;;4994343;28;20034;-76
2022/09/14 00:27:47;;;;;;;5.28;3.38;;;;;;;;;;4994247;28;20030;-75
2022/09/14 00:30:12;;;;;;;7.57;3.33;;;;;;;;;;4994335;28;20042;-76
2022/09/14 00:32:38;;;;;;;4.38;3.38;;;;;;;;;;4993020;28;20114;-75
2022/09/14 00:35:04;;;;;;;6.75;3.38;;;;;;;;;;4994655;28;20022;-75
2022/09/14 00:37:29;;;;;;;5.75;3.20;;;;;;;;;;4992807;28;20021;-74
2022/09/14 00:39:54;;;;;;;7.27;3.60;;;;;;;;;;4994148;28;20033;-75
2022/09/14 00:42:19;;;;;;;5.80;3.80;;;;;;;;;;4992309;28;20260;-76
2022/09/14 00:44:45;;;;;;;11.70;3.80;;;;;;;;;;4992742;28;20252;-75
2022/09/14 00:47:11;;;;;;;5.88;3.67;;;;;;;;;;4993914;28;20057;-75
2022/09/14 00:49:39;;;;;;;5.53;3.28;;;;;;;;;;4992705;28;20078;-76
2022/09/14 00:52:19;;;;;;;6.93;3.67;;;;;;;;;;4994122;28;20022;-75
2022/09/14 00:54:54;;;;;;;6.80;3.40;;;;;;;;;;4997399;28;20105;-76
2022/09/14 00:57:20;;;;;;;8.82;3.58;;;;;;;;;;5001304;28;20029;-75
2022/09/14 00:59:48;;;;;;;5.32;3.40;;;;;;;;;;5003993;28;20031;-75
2022/09/14 01:02:14;;;;;;;11.50;3.50;;;;;;;;;;5003994;28;20049;-76
2022/09/14 01:04:39;;;;;;;6.40;3.70;;;;;;;;;;4999462;28;20026;-76
2022/09/14 01:07:44;;;;;;;4.70;3.45;;;;;;;;;;4993388;28;20073;-76
2022/09/14 01:10:28;;;;;;;4.93;3.38;;;;;;;;;;4993163;28;20026;-76
2022/09/14 01:13:17;;;;;;;8.05;3.80;;;;;;;;;;4994017;28;20487;-75
2022/09/14 01:16:06;;;;;;;8.73;3.70;;;;;;;;;;4994101;28;20500;-75
2022/09/14 01:18:37;;;;;;;4.20;3.47;;;;;;;;;;4992379;28;20065;-76
2022/09/14 01:21:09;;;;;;;5.40;3.70;;;;;;;;;;4993844;28;20034;-75
2022/09/14 01:23:58;;;;;;;5.30;3.67;;;;;;;;;;4992456;28;20484;-75
2022/09/14 01:26:46;;;;;;;6.20;4.53;;;;;;;;;;4992361;28;20133;-75
2022/09/14 01:29:26;;;;;;;5.05;3.65;;;;;;;;;;4994132;28;20030;-77
2022/09/14 01:32:02;;;;;;;6.20;3.60;;;;;;;;;;4993565;28;20372;-76
2022/09/14 01:34:33;;;;;;;6.07;3.78;;;;;;;;;;4992463;28;20095;-75
2022/09/14 01:37:11;;;;;;;7.05;3.70;;;;;;;;;;4993213;28;20038;-77
2022/09/14 01:39:39;;;;;;;10.07;3.63;;;;;;;;;;4993914;28;20049;-76
2022/09/14 01:42:05;;;;;;;5.28;3.28;;;;;;;;;;4993502;28;20058;-75
2022/09/14 01:44:34;;;;;;;4.88;3.67;;;;;;;;;;4993688;28;20392;-76
2022/09/14 01:47:11;;;;;;;5.45;3.65;;;;;;;;;;4993551;28;20062;-76
2022/09/14 01:49:42;;;;;;;7.82;3.38;;;;;;;;;;4992177;28;20157;-76
2022/09/14 01:52:14;;;;;;;6.18;3.67;;;;;;;;;;4993733;28;20065;-75
2022/09/14 01:54:48;;;;;;;5.00;3.78;;;;;;;;;;4995576;28;20222;-76
2022/09/14 01:57:28;;;;;;;4.45;3.38;;;;;;;;;;4997311;28;20066;-77
2022/09/14 01:59:58;;;;;;;5.13;3.33;;;;;;;;;;4997318;28;20077;-75
2022/09/14 02:03:04;;;;;;;4.18;3.45;;;;;;;;;;4995803;28;20030;-75
2022/09/14 02:05:37;;;;;;;8.35;3.67;;;;;;;;;;4992469;28;20046;-75
2022/09/14 02:08:03;;;;;;;3.83;3.38;;;;;;;;;;4997098;28;20069;-76
2022/09/14 02:10:28;;;;;;;8.30;3.80;;;;;;;;;;4997315;28;20038;-76
2022/09/14 02:12:54;;;;;;;5.95;3.50;;;;;;;;;;4997154;28;20026;-74
2022/09/14 02:15:20;;;;;;;4.95;3.33;;;;;;;;;;4995470;28;20622;-74
2022/09/14 02:17:46;;;;;;;6.28;3.55;;;;;;;;;;4996881;28;20113;-73
2022/09/14 02:20:36;;;;;;;6.85;3.65;;;;;;;;;;4996639;28;20076;-76
2022/09/14 02:23:02;;;;;;;4.80;3.55;;;;;;;;;;4996962;28;20026;-77
2022/09/14 02:25:27;;;;;;;5.00;3.47;;;;;;;;;;4996615;28;20153;-75
2022/09/14 02:27:52;;;;;;;8.67;3.80;;;;;;;;;;4996252;28;20187;-74
2022/09/14 02:30:19;;;;;;;6.45;4.00;;;;;;;;;;4996714;28;20288;-76
2022/09/14 02:33:02;;;;;;;10.52;3.88;;;;;;;;;;4996731;28;20364;-76
2022/09/14 02:35:38;;;;;;;8.52;3.92;;;;;;;;;;4996676;28;20022;-76
2022/09/14 02:38:16;;;;;;;5.00;3.80;;;;;;;;;;4996467;28;20109;-76
2022/09/14 02:40:54;;;;;;;6.07;3.53;;;;;;;;;;4996398;28;20034;-76
2022/09/14 02:43:30;;;;;;;6.00;3.85;;;;;;;;;;4996583;28;20033;-76
2022/09/14 02:46:07;;;;;;;11.40;4.00;;;;;;;;;;4996267;28;20034;-75
2022/09/14 02:49:00;;;;;;;7.93;3.70;;;;;;;;;;4996393;28;20093;-76
2022/09/14 02:51:50;;;;;;;5.90;4.00;;;;;;;;;;4996177;28;20546;-75
2022/09/14 02:54:29;;;;;;;5.28;3.72;;;;;;;;;;4996132;28;20037;-74
2022/09/14 02:56:59;;;;;;;6.30;3.95;;;;;;;;;;4995172;28;20034;-75
2022/09/14 02:59:24;;;;;;;8.38;3.72;;;;;;;;;;4995983;28;20030;-76
2022/09/14 03:01:49;;;;;;;5.82;3.90;;;;;;;;;;4995925;28;20026;-75
2022/09/14 03:04:14;;;;;;;6.43;3.90;;;;;;;;;;4995439;28;20049;-76
2022/09/14 03:06:40;;;;;;;7.50;3.80;;;;;;;;;;4995917;28;20272;-75
2022/09/14 03:09:05;;;;;;;7.05;4.18;;;;;;;;;;4994708;28;20033;-75
2022/09/14 03:11:30;;;;;;;7.72;4.13;;;;;;;;;;4996336;28;20097;-75
2022/09/14 03:13:55;;;;;;;7.00;3.83;;;;;;;;;;4995660;28;20034;-76
2022/09/14 03:16:20;;;;;;;7.87;3.90;;;;;;;;;;4995618;28;20268;-75
2022/09/14 03:18:46;;;;;;;9.80;4.00;;;;;;;;;;4995538;28;20276;-75
2022/09/14 03:21:13;;;;;;;4.73;3.90;;;;;;;;;;4995799;28;20271;-75
2022/09/14 03:23:41;;;;;;;7.85;3.75;;;;;;;;;;4995711;28;20298;-75
2022/09/14 03:26:18;;;;;;;5.75;4.05;;;;;;;;;;4995350;28;20037;-76
2022/09/14 03:28:48;;;;;;;6.57;4.03;;;;;;;;;;4995262;28;20038;-75
2022/09/14 03:31:13;;;;;;;6.68;4.00;;;;;;;;;;4995568;28;20121;-76
2022/09/14 03:33:39;;;;;;;4.97;3.53;;;;;;;;;;4995828;28;20120;-76
2022/09/14 03:36:15;;;;;;;5.18;3.83;;;;;;;;;;4995269;28;20306;-75
2022/09/14 03:39:00;;;;;;;4.93;3.70;;;;;;;;;;4993944;28;20034;-75
2022/09/14 03:41:26;;;;;;;5.47;3.70;;;;;;;;;;4995179;28;20383;-76
2022/09/14 03:43:52;;;;;;;8.32;3.67;;;;;;;;;;4995099;28;20084;-76
2022/09/14 03:46:20;;;;;;;12.27;4.60;;;;;;;;;;4995265;28;20419;-76
2022/09/14 03:48:45;;;;;;;5.95;3.85;;;;;;;;;;4993669;28;20118;-76
2022/09/14 03:51:13;;;;;;;5.28;3.58;;;;;;;;;;4994983;28;20042;-76
2022/09/14 03:53:39;;;;;;;7.60;3.97;;;;;;;;;;4994947;28;20087;-76
2022/09/14 03:56:22;;;;;;;9.52;3.83;;;;;;;;;;4994817;28;20026;-75
2022/09/14 03:58:48;;;;;;;4.88;3.60;;;;;;;;;;4993504;28;20022;-76
2022/09/14 04:01:17;;;;;;;8.27;3.80;;;;;;;;;;4993535;28;20030;-76
2022/09/14 04:03:42;;;;;;;7.75;3.65;;;;;;;;;;4995116;28;20046;-76
2022/09/14 04:06:08;;;;;;;4.57;3.60;;;;;;;;;;4994737;28;20092;-77
2022/09/14 04:08:35;;;;;;;7.38;4.05;;;;;;;;;;4994710;28;20387;-76
2022/09/14 04:11:17;;;;;;;6.18;3.83;;;;;;;;;;4994787;28;20106;-75
2022/09/14 04:13:43;;;;;;;5.47;3.75;;;;;;;;;;4994778;28;20026;-75
2022/09/14 04:16:08;;;;;;;8.25;3.63;;;;;;;;;;4994100;28;20026;-77
2022/09/14 04:18:34;;;;;;;5.15;3.75;;;;;;;;;;4994856;28;20575;-75
2022/09/14 04:21:05;;;;;;;7.27;3.30;;;;;;;;;;4993235;28;20027;-75
2022/09/14 04:23:30;;;;;;;9.80;4.07;;;;;;;;;;4994842;28;20307;-75
2022/09/14 04:25:55;;;;;;;6.47;4.00;;;;;;;;;;4994392;28;20026;-76
2022/09/14 04:28:21;;;;;;;7.40;3.77;;;;;;;;;;4994408;28;20084;-75
2022/09/14 04:30:57;;;;;;;7.88;3.80;;;;;;;;;;4993058;28;20267;-75
2022/09/14 04:33:22;;;;;;;6.82;3.95;;;;;;;;;;4994596;28;20022;-76
2022/09/14 04:35:56;;;;;;;6.65;3.72;;;;;;;;;;4977339;28;20431;-76
2022/09/14 04:38:21;;;;;;;7.97;4.25;;;;;;;;;;4994374;28;20022;-75
2022/09/14 04:40:47;;;;;;;6.57;4.20;;;;;;;;;;4994412;28;20442;-76
2022/09/14 04:43:12;;;;;;;6.85;4.00;;;;;;;;;;4994147;28;20105;-76
2022/09/14 04:45:37;;;;;;;8.57;4.23;;;;;;;;;;4992882;28;20026;-75
2022/09/14 04:48:03;;;;;;;11.67;4.40;;;;;;;;;;4993835;28;20291;-76
2022/09/14 04:50:31;;;;;;;8.27;4.47;;;;;;;;;;4994199;28;20740;-75
2022/09/14 04:52:56;;;;;;;8.43;4.20;;;;;;;;;;4994222;28;20041;-76
2022/09/14 04:55:22;;;;;;;7.53;4.70;;;;;;;;;;4994089;28;20034;-76
2022/09/14 04:57:48;;;;;;;11.98;5.32;;;;;;;;;;4992657;28;20261;-76
2022/09/14 05:00:13;;;;;;;5.82;4.03;;;;;;;;;;4993839;28;20019;-75
2022/09/14 05:02:40;;;;;;;7.85;4.63;;;;;;;;;;4992538;28;20061;-76
2022/09/14 05:05:05;;;;;;;7.07;4.90;;;;;;;;;;4993944;28;20067;-76
2022/09/14 05:07:31;;;;;;;5.80;4.40;;;;;;;;;;4993722;28;20457;-76
2022/09/14 05:09:56;;;;;;;7.83;4.57;;;;;;;;;;4992405;28;20026;-76
2022/09/14 05:12:21;;;;;;;7.53;4.23;;;;;;;;;;4993699;28;20260;-75
2022/09/14 05:14:46;;;;;;;9.30;4.63;;;;;;;;;;4993644;28;20314;-76
2022/09/14 05:17:11;;;;;;;7.83;4.23;;;;;;;;;;4993660;28;20272;-76
2022/09/14 05:19:37;;;;;;;7.57;4.37;;;;;;;;;;4993876;28;20271;-76
2022/09/14 05:22:02;;;;;;;5.90;4.20;;;;;;;;;;4992248;28;20312;-76
2022/09/14 05:24:27;;;;;;;9.35;4.85;;;;;;;;;;4992226;28;20296;-76
2022/09/14 05:26:53;;;;;;;5.68;4.07;;;;;;;;;;4993798;28;20030;-76
2022/09/14 05:29:18;;;;;;;7.43;4.23;;;;;;;;;;4996918;28;20037;-76
2022/09/14 05:31:44;;;;;;;7.57;4.05;;;;;;;;;;4997631;28;20256;-75
2022/09/14 05:34:10;;;;;;;8.70;3.83;;;;;;;;;;4997532;28;20038;-75
2022/09/14 05:36:37;;;;;;;5.95;4.18;;;;;;;;;;4997404;28;20026;-76
2022/09/14 05:39:03;;;;;;;8.38;3.92;;;;;;;;;;4997371;28;20034;-76
2022/09/14 05:41:28;;;;;;;5.03;4.13;;;;;;;;;;4997580;28;20023;-75
2022/09/14 05:43:53;;;;;;;5.73;4.23;;;;;;;;;;4997492;28;20054;-75
2022/09/14 05:46:19;;;;;;;8.57;4.37;;;;;;;;;;4995901;28;20275;-76
2022/09/14 05:48:45;;;;;;;6.30;4.57;;;;;;;;;;4997291;28;20260;-76
2022/09/14 05:51:14;;;;;;;8.48;4.50;;;;;;;;;;4997526;28;20030;-76
2022/09/14 05:53:40;;;;;;;5.53;4.05;;;;;;;;;;4997157;28;20422;-75
2022/09/14 05:56:10;;;;;;;6.50;4.35;;;;;;;;;;4997135;28;20026;-75
2022/09/14 05:58:37;;;;;;;7.90;4.13;;;;;;;;;;4997048;28;20034;-75
2022/09/14 06:01:11;;;;;;;8.32;4.72;;;;;;;;;;4996982;28;20057;-75
2022/09/14 06:03:37;;;;;;;8.88;4.50;;;;;;;;;;4995636;28;20475;-75
2022/09/14 06:06:04;;;;;;;10.75;4.80;;;;;;;;;;4995548;28;20057;-75
2022/09/14 06:08:29;;;;;;;8.38;4.63;;;;;;;;;;4996544;28;20120;-75
2022/09/14 06:10:55;;;;;;;9.53;4.40;;;;;;;;;;4996711;28;20482;-75
2022/09/14 06:13:22;;;;;;;6.95;4.30;;;;;;;;;;4996893;28;20256;-76
2022/09/14 06:15:47;;;;;;;13.77;4.45;;;;;;;;;;4996696;28;20065;-76
2022/09/14 06:18:12;;;;;;;7.88;4.55;;;;;;;;;;4996619;28;20050;-74
2022/09/14 06:20:37;;;;;;;8.03;6.13;;;;;;;;;;4995368;28;20034;-73
2022/09/14 06:23:03;;;;;;;9.77;5.30;;;;;;;;;;4997094;28;20260;-74
2022/09/14 06:25:28;;;;;;;9.68;5.07;;;;;;;;;;4995698;28;20260;-78
2022/09/14 06:27:54;;;;;;;9.90;5.03;;;;;;;;;;4995831;28;20031;-76
2022/09/14 06:30:19;;;;;;;8.15;4.68;;;;;;;;;;4997574;28;20339;-75
2022/09/14 06:32:44;;;;;;;8.38;4.57;;;;;;;;;;4999931;28;20430;-76
2022/09/14 06:35:10;;;;;;;6.73;4.47;;;;;;;;;;4996387;28;20030;-74
2022/09/14 06:37:35;;;;;;;10.07;4.20;;;;;;;;;;4996329;28;20693;-75
2022/09/14 06:40:00;;;;;;;9.02;4.57;;;;;;;;;;4994046;28;20267;-76
2022/09/14 06:42:28;;;;;;;8.38;3.95;;;;;;;;;;4996142;28;20033;-76
2022/09/14 06:44:53;;;;;;;9.77;5.18;;;;;;;;;;4996292;28;20066;-76
2022/09/14 06:47:18;;;;;;;12.53;4.70;;;;;;;;;;4996257;28;20061;-75
2022/09/14 06:49:44;;;;;;;9.63;5.07;;;;;;;;;;4996212;28;20291;-76
2022/09/14 06:52:09;;;;;;;6.60;4.75;;;;;;;;;;4995924;28;20077;-75
2022/09/14 06:54:34;;;;;;;13.80;4.60;;;;;;;;;;4995958;28;20387;-75
2022/09/14 06:56:59;;;;;;;10.70;5.00;;;;;;;;;;4995985;28;20673;-74
2022/09/14 06:59:25;;;;;;;8.50;4.57;;;;;;;;;;4996099;28;20046;-76
2022/09/14 07:01:50;;;;;;;15.35;4.72;;;;;;;;;;4994526;28;20264;-75
2022/09/14 07:04:16;;;;;;;10.57;4.43;;;;;;;;;;4996448;28;20018;-75
2022/09/14 07:06:44;;;;;;;16.90;4.85;;;;;;;;;;4995744;28;20331;-75
2022/09/14 07:09:10;;;;;;;11.85;4.80;;;;;;;;;;4995637;28;20031;-76
2022/09/14 07:11:35;;;;;;;13.23;4.70;;;;;;;;;;4995795;28;20041;-76
2022/09/14 07:14:01;;;;;;;10.68;4.78;;;;;;;;;;4995628;28;20104;-76
2022/09/14 07:16:28;;;;;;;9.95;4.60;;;;;;;;;;4995508;28;20026;-75
2022/09/14 07:18:55;;;;;;;9.93;4.75;;;;;;;;;;4994159;28;20030;-77
2022/09/14 07:21:26;;;;;;;16.08;5.00;;;;;;;;;;4995463;28;20085;-77
2022/09/14 07:23:52;;;;;;;11.40;5.10;;;;;;;;;;4994740;28;20018;-74
2022/09/14 07:26:20;;;;;;;8.50;5.03;;;;;;;;;;4995540;28;20026;-72
2022/09/14 07:28:51;;;;;;;10.60;4.95;;;;;;;;;;4995029;28;20543;-73
2022/09/14 07:31:29;;;;;;;11.80;5.25;;;;;;;;;;4995504;28;20034;-71
2022/09/14 07:33:56;;;;;;;6.65;4.75;;;;;;;;;;4995938;28;20048;-73
2022/09/14 07:36:23;;;;;;;10.00;5.80;;;;;;;;;;4995404;28;20034;-72
2022/09/14 07:38:49;;;;;;;9.60;5.72;;;;;;;;;;4997035;28;20069;-76
2022/09/14 07:41:14;;;;;;;12.80;5.85;;;;;;;;;;4998002;28;20042;-78
2022/09/14 07:43:39;;;;;;;17.10;5.95;;;;;;;;;;4996003;28;20018;-79
2022/09/14 07:46:05;;;;;;;15.48;6.00;;;;;;;;;;4998278;28;20391;-80
2022/09/14 07:48:32;;;;;;;7.35;5.43;;;;;;;;;;4997616;28;20106;-78
2022/09/14 07:51:03;;;;;;;13.90;5.72;;;;;;;;;;4997843;28;20057;-78
2022/09/14 07:53:29;;;;;;;8.27;5.43;;;;;;;;;;4997762;28;20031;-80
2022/09/14 07:55:58;;;;;;;9.18;5.63;;;;;;;;;;4997468;28;20023;-80
2022/09/14 07:58:23;;;;;;;13.18;5.47;;;;;;;;;;4997301;28;20022;-80
2022/09/14 08:00:48;;;;;;;9.03;5.80;;;;;;;;;;4997770;28;20410;-80
2022/09/14 08:03:14;;;;;;;9.53;5.87;;;;;;;;;;4997988;28;20708;-78
2022/09/14 08:05:39;;;;;;;9.53;6.03;;;;;;;;;;4997577;28;20624;-80
2022/09/14 08:08:04;;;;;;;15.32;6.50;;;;;;;;;;4998105;28;20618;-79
2022/09/14 08:10:29;;;;;;;12.02;6.43;;;;;;;;;;4997800;28;20174;-80
2022/09/14 08:12:55;;;;;;;13.40;6.07;;;;;;;;;;4997740;28;20372;-79
2022/09/14 08:15:22;;;;;;;8.73;6.85;;;;;;;;;;4997782;28;20283;-80
2022/09/14 08:17:48;;;;;;;12.00;6.75;;;;;;;;;;4997468;28;20081;-79
2022/09/14 08:20:15;;;;;;;11.55;6.80;;;;;;;;;;4997158;28;20053;-79
2022/09/14 08:22:40;;;;;;;10.18;6.70;;;;;;;;;;4996000;28;20495;-80
2022/09/14 08:25:06;;;;;;;12.88;6.78;;;;;;;;;;4997403;28;20057;-80
2022/09/14 08:27:31;;;;;;;10.80;7.00;;;;;;;;;;4997121;28;20073;-79
2022/09/14 08:29:56;;;;;;;10.77;6.67;;;;;;;;;;4996124;28;20026;-80
2022/09/14 08:32:21;;;;;;;13.40;6.87;;;;;;;;;;4997122;28;20268;-80
2022/09/14 08:34:48;;;;;;;16.97;7.77;;;;;;;;;;4996614;28;20267;-80
2022/09/14 08:37:13;;;;;;;13.82;7.13;;;;;;;;;;4995014;28;20262;-79
2022/09/14 08:39:39;;;;;;;10.98;7.28;;;;;;;;;;4996852;28;20109;-81
2022/09/14 08:42:12;;;;;;;14.10;7.30;;;;;;;;;;4995085;28;20447;-82
2022/09/14 08:44:45;;;;;;;13.25;8.15;;;;;;;;;;4995386;28;20026;-80
2022/09/14 08:47:20;;;;;;;10.90;8.13;;;;;;;;;;4996631;28;20031;-80
2022/09/14 08:49:57;;;;;;;16.08;8.20;;;;;;;;;;4996963;28;20476;-80
2022/09/14 08:52:31;;;;;;;12.05;7.95;;;;;;;;;;4996530;28;20022;-80
2022/09/14 08:55:14;;;;;;;12.95;7.85;;;;;;;;;;4997245;28;20026;-80
2022/09/14 08:57:44;;;;;;;12.85;8.00;;;;;;;;;;4996980;28;20026;-79
2022/09/14 09:00:35;;;;;;;12.50;8.05;;;;;;;;;;4996548;28;20029;-81
2022/09/14 09:03:21;;;;;;;10.07;7.70;;;;;;;;;;4996542;28;20538;-81
2022/09/14 09:06:14;;;;;;;12.73;8.02;;;;;;;;;;4994771;28;20032;-81
2022/09/14 09:08:55;;;;;;;11.70;7.18;;;;;;;;;;4996405;28;20023;-80
2022/09/14 09:11:25;;;;;;;14.20;7.82;;;;;;;;;;4996858;28;20030;-81
2022/09/14 09:13:51;;;;;;;15.05;7.80;;;;;;;;;;4995683;28;20053;-79
2022/09/14 09:16:21;;;;;;;11.48;8.18;;;;;;;;;;4996119;28;20038;-80
2022/09/14 09:18:56;;;;;;;13.57;7.85;;;;;;;;;;4995564;28;20023;-80
2022/09/14 09:21:27;;;;;;;15.50;8.52;;;;;;;;;;4996309;28;20464;-81
2022/09/14 09:24:24;;;;;;;15.25;8.95;;;;;;;;;;4995008;28;20061;-81
2022/09/14 09:26:50;;;;;;;14.18;9.13;;;;;;;;;;4995832;28;20084;-81
2022/09/14 09:29:15;;;;;;;17.17;8.50;;;;;;;;;;4994003;28;20027;-81
2022/09/14 09:31:46;;;;;;;15.88;8.68;;;;;;;;;;4996239;28;20097;-79
2022/09/14 09:34:14;;;;;;;16.42;8.77;;;;;;;;;;4996105;28;20061;-78
2022/09/14 09:36:42;;;;;;;13.68;9.15;;;;;;;;;;4994790;28;20018;-82
2022/09/14 09:39:07;;;;;;;16.23;9.80;;;;;;;;;;4995708;28;20026;-80
2022/09/14 09:41:41;;;;;;;16.13;9.73;;;;;;;;;;4995572;28;20029;-80
2022/09/14 09:44:08;;;;;;;16.45;10.18;;;;;;;;;;4996084;28;20109;-81
2022/09/14 09:46:44;;;;;;;16.10;9.88;;;;;;;;;;4995069;28;20027;-81
2022/09/14 09:49:21;;;;;;;15.25;10.00;;;;;;;;;;4994840;28;20033;-81
2022/09/14 09:51:46;;;;;;;14.75;10.82;;;;;;;;;;4995658;28;20028;-79
2022/09/14 09:54:11;;;;;;;15.82;10.23;;;;;;;;;;4995658;28;20113;-81
2022/09/14 09:56:40;;;;;;;20.17;11.30;;;;;;;;;;4994301;28;20030;-81
2022/09/14 09:59:27;;;;;;;18.77;11.45;;;;;;;;;;4995699;28;20068;-81
2022/09/14 10:01:55;;;;;;;17.85;10.93;;;;;;;;;;4995837;28;20030;-81
2022/09/14 10:04:26;;;;;;;14.98;10.98;;;;;;;;;;4995851;28;20030;-81
2022/09/14 10:06:53;;;;;;;19.15;11.63;;;;;;;;;;4994315;28;20058;-81
2022/09/14 10:09:21;;;;;;;15.55;10.38;;;;;;;;;;4994115;28;20490;-81
2022/09/14 10:11:54;;;;;;;17.70;11.52;;;;;;;;;;4995797;28;20060;-81
2022/09/14 10:14:27;;;;;;;21.60;11.55;;;;;;;;;;4994492;28;20057;-81
2022/09/14 10:17:04;;;;;;;16.60;11.65;;;;;;;;;;4998280;28;20030;-80
2022/09/14 10:19:30;;;;;;;18.67;12.10;;;;;;;;;;4999828;28;20415;-80
2022/09/14 10:22:17;;;;;;;18.13;11.07;;;;;;;;;;4999016;28;20042;-81
2022/09/14 10:24:52;;;;;;;18.35;12.05;;;;;;;;;;4999801;28;20425;-80
2022/09/14 10:28:01;;;;;;;13.82;10.95;;;;;;;;;;4999149;28;20084;-81
2022/09/14 10:30:35;;;;;;;14.77;11.00;;;;;;;;;;4990572;28;20045;-81
2022/09/14 10:33:05;;;;;;;;;;;;;;;;;;4999238;28;20415;-80
2022/09/14 10:35:40;;;;;;;17.35;10.50;;;;;;;;;;4997696;28;19909;-80
2022/09/14 10:38:29;;;;;;;16.88;11.02;;;;;;;;;;4997313;28;20049;-81
2022/09/14 10:41:02;;;;;;;18.20;10.65;;;;;;;;;;4998610;28;20168;-81
2022/09/14 10:44:18;;;;;;;18.52;10.65;;;;;;;;;;4999176;28;20027;-81
2022/09/14 10:47:13;;;;;;;16.25;10.43;;;;;;;;;;4998659;28;20122;-82
2022/09/14 10:49:51;;;;;;;14.48;9.90;;;;;;;;;;4998716;28;20060;-81
2022/09/14 10:52:31;;;;;;;11.95;9.35;;;;;;;;;;4998155;28;20022;-80
2022/09/14 10:55:11;;;;;;;13.85;9.90;;;;;;;;;;4997354;28;20033;-81
2022/09/14 10:58:06;;;;;;;12.80;9.38;;;;;;;;;;4996713;28;20030;-80
2022/09/14 11:00:44;;;;;;;13.23;9.50;;;;;;;;;;4998403;28;20030;-82
2022/09/14 11:03:28;;;;;;;12.30;8.80;;;;;;;;;;4999100;28;20041;-81
2022/09/14 11:06:24;;;;;;;17.08;9.35;;;;;;;;;;4998373;28;20109;-80
2022/09/14 11:09:14;;;;;;;15.48;9.32;;;;;;;;;;4997591;28;20041;-80
2022/09/14 11:12:06;;;;;;;12.43;9.73;;;;;;;;;;4996148;28;20052;-78
2022/09/14 11:14:50;;;;;;;17.55;10.88;;;;;;;;;;4998353;28;20373;-80
2022/09/14 11:17:53;;;;;;;17.98;11.18;;;;;;;;;;4997444;28;20052;-80
2022/09/14 11:20:44;;;;;;;15.63;10.45;;;;;;;;;;4999892;28;20026;-84
2022/09/14 11:23:18;;;;;;;18.30;11.85;;;;;;;;;;5000094;28;20030;-80
2022/09/14 11:26:01;;;;;;;;;;;;;;;;;;5000144;28;20038;-80
2022/09/14 11:28:32;;;;;;;19.45;11.88;;;;;;;;;;4999106;28;19918;-82
2022/09/14 11:31:02;;;;;;;22.85;11.95;;;;;;;;;;4997744;28;20022;-81
2022/09/14 11:33:39;;;;;;;21.92;13.18;;;;;;;;;;4997834;28;20030;-79
2022/09/14 11:36:19;;;;;;;20.20;12.65;;;;;;;;;;4997394;28;20026;-81
2022/09/14 11:38:55;;;;;;;19.73;12.60;;;;;;;;;;4998473;28;20479;-80
2022/09/14 11:41:23;;;;;;;19.50;12.43;;;;;;;;;;4999236;28;20356;-79
2022/09/14 11:43:55;;;;;;;16.02;12.27;;;;;;;;;;4998112;28;20037;-79
2022/09/14 11:46:32;;;;;;;21.17;12.27;;;;;;;;;;4996891;28;20058;-81
2022/09/14 11:49:14;;;;;;;22.13;12.77;;;;;;;;;;4998758;28;20034;-81
2022/09/14 11:51:54;;;;;;;19.52;12.45;;;;;;;;;;4998536;28;20039;-80
2022/09/14 11:54:21;;;;;;;17.77;12.23;;;;;;;;;;4998276;28;20026;-80
2022/09/14 11:56:49;;;;;;;23.58;13.23;;;;;;;;;;4996498;28;20029;-80
2022/09/14 11:59:34;;;;;;;16.17;11.85;;;;;;;;;;4996347;28;20025;-79
2022/09/14 12:02:21;;;;;;;21.15;12.68;;;;;;;;;;4997113;28;20034;-79
2022/09/14 12:05:05;;;;;;;21.92;12.15;;;;;;;;;;4996884;28;20014;-79
2022/09/14 12:07:45;;;;;;;22.33;12.02;;;;;;;;;;4995984;28;20018;-79
2022/09/14 12:10:13;;;;;;;22.73;13.20;;;;;;;;;;4996336;28;20101;-79
2022/09/14 12:12:40;;;;;;;18.45;13.15;;;;;;;;;;4995914;28;20435;-80
2022/09/14 12:15:24;;;;;;;18.77;12.68;;;;;;;;;;4997247;28;20097;-79
2022/09/14 12:18:05;;;;;;;21.08;13.35;;;;;;;;;;5000367;28;20033;-80
2022/09/14 12:20:36;;;;;;;21.55;13.10;;;;;;;;;;4996641;28;20030;-79
2022/09/14 12:23:35;;;;;;;22.98;13.43;;;;;;;;;;4997514;28;20031;-80
2022/09/14 12:26:10;;;;;;;23.70;13.55;;;;;;;;;;4997699;28;20026;-80
2022/09/14 12:28:35;;;;;;;22.35;13.55;;;;;;;;;;4997796;28;20062;-80
2022/09/14 12:31:03;;;;;;;24.00;13.98;;;;;;;;;;4997970;28;20081;-80
2022/09/14 12:33:32;;;;;;;23.40;15.43;;;;;;;;;;4998027;28;20022;-81
2022/09/14 12:36:04;;;;;;;26.83;15.68;;;;;;;;;;4996095;28;20032;-80
2022/09/14 12:38:30;;;;;;;24.38;14.40;;;;;;;;;;4996854;28;20030;-80
2022/09/14 12:40:57;;;;;;;22.33;15.15;;;;;;;;;;4997593;28;20076;-80
2022/09/14 12:43:31;;;;;;;22.50;15.23;;;;;;;;;;4996887;28;20395;-80
2022/09/14 12:46:08;;;;;;;22.65;14.02;;;;;;;;;;4998133;28;20019;-80
2022/09/14 12:48:46;;;;;;;19.75;13.68;;;;;;;;;;4996756;28;20027;-80
2022/09/14 12:51:38;;;;;;;19.92;13.13;;;;;;;;;;4998733;28;20030;-80
2022/09/14 12:54:06;;;;;;;18.27;12.68;;;;;;;;;;4990575;28;20033;-79
2022/09/14 12:56:50;;;;;;;17.77;12.48;;;;;;;;;;4999741;28;20054;-79
2022/09/14 12:59:37;;;;;;;18.75;12.38;;;;;;;;;;4998634;28;20026;-80
2022/09/14 13:02:42;;;;;;;17.75;12.07;;;;;;;;;;4999040;28;20400;-79
2022/09/14 13:05:17;;;;;;;24.33;14.18;;;;;;;;;;4998529;28;20027;-81
2022/09/14 13:07:44;;;;;;;19.33;13.20;;;;;;;;;;4999124;28;20026;-81
2022/09/14 13:10:25;;;;;;;17.17;12.40;;;;;;;;;;5000106;28;20030;-82
2022/09/14 13:12:51;;;;;;;15.65;12.10;;;;;;;;;;4999818;28;20109;-78
2022/09/14 13:15:21;;;;;;;20.00;12.82;;;;;;;;;;4999454;28;20065;-80
2022/09/14 13:17:57;;;;;;;15.45;11.63;;;;;;;;;;5002848;28;20026;-80
2022/09/14 13:20:22;;;;;;;17.40;11.93;;;;;;;;;;5015510;28;20053;-80
2022/09/14 13:22:54;;;;;;;16.35;11.55;;;;;;;;;;5013537;28;20058;-80
2022/09/14 13:25:40;;;;;;;15.32;11.55;;;;;;;;;;5014467;28;20030;-80
2022/09/14 13:28:12;;;;;;;16.30;10.88;;;;;;;;;;5007834;28;20034;-81
2022/09/14 13:30:38;;;;;;;14.85;10.45;;;;;;;;;;5012754;28;20031;-80
2022/09/14 13:33:03;;;;;;;16.23;11.30;;;;;;;;;;5010448;28;20073;-80
2022/09/14 13:35:41;;;;;;;13.45;10.00;;;;;;;;;;5015361;28;20011;-80
2022/09/14 13:38:16;;;;;;;14.23;9.27;;;;;;;;;;5011726;28;20026;-80
2022/09/14 13:40:48;;;;;;;13.77;9.45;;;;;;;;;;5012267;28;20038;-79
2022/09/14 13:43:15;;;;;;;13.85;9.18;;;;;;;;;;5009277;28;20048;-80
2022/09/14 13:45:44;;;;;;;14.68;9.88;;;;;;;;;;5011821;28;20377;-80
2022/09/14 13:48:13;;;;;;;15.82;12.32;;;;;;;;;;5002995;28;20085;-80
2022/09/14 13:50:47;;;;;;;14.38;10.98;;;;;;;;;;5015991;28;20064;-81
2022/09/14 13:53:36;;;;;;;18.02;11.43;;;;;;;;;;5003843;28;20570;-80
2022/09/14 13:56:24;;;;;;;14.13;10.25;;;;;;;;;;5003496;28;20030;-81
2022/09/14 13:59:10;;;;;;;12.55;10.18;;;;;;;;;;5001938;28;20023;-79
2022/09/14 14:01:52;;;;;;;11.18;9.30;;;;;;;;;;5002552;28;20456;-81
2022/09/14 14:04:24;;;;;;;11.80;9.55;;;;;;;;;;5002141;28;20038;-81
2022/09/14 14:07:25;;;;;;;14.98;9.65;;;;;;;;;;5002712;28;20080;-80
2022/09/14 14:09:53;;;;;;;13.45;9.35;;;;;;;;;;4999154;28;20062;-81
2022/09/14 14:12:26;;;;;;;11.93;9.40;;;;;;;;;;5002618;28;20482;-82
2022/09/14 14:14:55;;;;;;;12.77;9.38;;;;;;;;;;5002182;28;20092;-81
2022/09/14 14:17:22;;;;;;;11.63;9.98;;;;;;;;;;5002737;28;20057;-80
2022/09/14 14:19:49;;;;;;;13.00;10.20;;;;;;;;;;5003559;28;20093;-80
2022/09/14 14:22:18;;;;;;;11.90;9.55;;;;;;;;;;5002995;28;20517;-81
2022/09/14 14:24:46;;;;;;;13.20;10.07;;;;;;;;;;5008319;28;20022;-80
2022/09/14 14:27:33;;;;;;;12.43;10.10;;;;;;;;;;5015091;28;20029;-80
2022/09/14 14:30:00;;;;;;;13.10;9.38;;;;;;;;;;5014783;28;20036;-80
2022/09/14 14:32:27;;;;;;;11.73;9.80;;;;;;;;;;5014567;28;20026;-80
2022/09/14 14:34:52;;;;;;;11.60;9.35;;;;;;;;;;5014822;28;20084;-81
2022/09/14 14:37:19;;;;;;;10.90;9.00;;;;;;;;;;5014659;28;20026;-79
2022/09/14 14:39:44;;;;;;;12.02;9.38;;;;;;;;;;5013560;28;20021;-80
2022/09/14 14:42:09;;;;;;;12.55;9.50;;;;;;;;;;5017868;28;20022;-81
2022/09/14 14:44:35;;;;;;;13.85;9.50;;;;;;;;;;5016351;28;20455;-81
2022/09/14 14:47:00;;;;;;;14.35;10.13;;;;;;;;;;5013185;28;20090;-79
2022/09/14 14:49:25;;;;;;;14.18;9.52;;;;;;;;;;5013514;28;20094;-80
2022/09/14 14:51:52;;;;;;;12.77;10.50;;;;;;;;;;5011526;28;20073;-79
2022/09/14 14:54:17;;;;;;;12.48;9.07;;;;;;;;;;5012076;28;20255;-79
2022/09/14 14:56:45;;;;;;;10.43;8.40;;;;;;;;;;5011447;28;20034;-79
2022/09/14 14:59:19;;;;;;;9.75;8.57;;;;;;;;;;5011797;28;20034;-80